Time;durP1;ratioP1;P1;durP2;ratioP2;P2;SDS_P1;SDS_P2;PMS_P1;PMS_P2;Temp;Humidity;BMP_temperature;BMP_pressure;BME280_temperature;BME280_humidity;BME280_pressure;Samples;Min_cycle;Max_cycle;Signal;HPM_P1;HPM_P2
2022/02/01 00:01:03;;;;;;;142.07;62.40;;;;;;;-0.22;100.00;98022.13;2073289;28;20725;-74
2022/02/01 00:02:10;;;;;;;145.95;63.35;;;;;;;-0.23;100.00;98023.16;2073453;28;20189;-74
2022/02/01 00:03:17;;;;;;;139.90;60.92;;;;;;;-0.23;100.00;98020.53;2073504;28;20247;-75
2022/02/01 00:04:30;;;;;;;149.68;62.05;;;;;;;-0.23;100.00;98025.78;2074077;28;20196;-75
2022/02/01 00:05:38;;;;;;;151.35;61.00;;;;;;;-0.23;100.00;98020.53;2074118;28;20231;-73
2022/02/01 00:06:53;;;;;;;151.40;62.38;;;;;;;-0.23;100.00;98025.78;2073075;28;20623;-73
2022/02/01 00:08:09;;;;;;;143.35;60.38;;;;;;;-0.29;100.00;98021.53;2073527;28;20199;-73
2022/02/01 00:09:23;;;;;;;145.77;61.50;;;;;;;-0.26;100.00;98028.94;2073425;28;20688;-73
2022/02/01 00:10:43;;;;;;;146.90;61.33;;;;;;;-0.26;100.00;98031.53;2067256;28;20235;-73
2022/02/01 00:11:56;;;;;;;149.68;60.90;;;;;;;-0.25;100.00;98038.38;2073893;28;20215;-74
2022/02/01 00:13:07;;;;;;;138.55;58.63;;;;;;;-0.27;100.00;98032.56;2073265;28;20200;-74
2022/02/01 00:14:17;;;;;;;139.50;59.30;;;;;;;-0.29;100.00;98039.88;2073767;28;20177;-74
2022/02/01 00:15:53;;;;;;;162.85;61.15;;;;;;;-0.32;100.00;98041.19;2074226;28;20180;-74
2022/02/01 00:17:06;;;;;;;145.05;59.78;;;;;;;-0.35;100.00;98040.88;2074077;28;20266;-74
2022/02/01 00:18:26;;;;;;;144.80;58.30;;;;;;;-0.36;100.00;98042.72;2073698;28;20206;-74
2022/02/01 00:20:03;;;;;;;145.68;61.13;;;;;;;-0.37;100.00;98040.34;2067935;28;20263;-74
2022/02/01 00:33:48;;;;;;;148.75;59.78;;;;;;;-0.50;100.00;98041.56;2065153;28;20682;-74
2022/02/01 00:35:11;;;;;;;141.40;62.03;;;;;;;-0.50;100.00;98049.44;2073557;28;20251;-74
2022/02/01 00:36:26;;;;;;;146.65;61.83;;;;;;;-0.50;100.00;98046.00;2073060;28;20585;-74
2022/02/01 00:37:31;;;;;;;148.45;63.50;;;;;;;-0.52;100.00;98040.22;2073990;28;20188;-75
2022/02/01 00:38:46;;;;;;;149.48;62.13;;;;;;;-0.54;100.00;98047.53;2074050;28;20642;-74
2022/02/01 00:39:56;;;;;;;147.02;61.08;;;;;;;-0.55;100.00;98046.75;2074190;28;20635;-75
2022/02/01 00:41:06;;;;;;;154.65;61.03;;;;;;;-0.57;100.00;98047.00;2073575;28;20208;-75
2022/02/01 00:42:08;;;;;;;152.70;60.47;;;;;;;-0.60;100.00;98050.13;2073675;28;20574;-74
2022/02/01 00:43:12;;;;;;;139.38;61.47;;;;;;;-0.59;100.00;98050.91;2073297;28;20192;-75
2022/02/01 00:44:17;;;;;;;143.10;62.45;;;;;;;-0.61;100.00;98039.88;2074008;28;20177;-75
2022/02/01 00:45:21;;;;;;;144.43;61.60;;;;;;;-0.61;100.00;98058.22;2073831;28;20658;-75
2022/02/01 00:46:27;;;;;;;148.95;62.58;;;;;;;-0.61;100.00;98058.22;2073945;28;20202;-75
2022/02/01 00:47:32;;;;;;;136.88;60.75;;;;;;;-0.60;100.00;98059.81;2073505;28;20216;-75
2022/02/01 00:48:38;;;;;;;141.77;60.83;;;;;;;-0.61;100.00;98063.44;2073303;28;20271;-74
2022/02/01 00:49:40;;;;;;;136.25;58.72;;;;;;;-0.63;100.00;98058.47;2073143;28;20207;-75
2022/02/01 00:50:45;;;;;;;130.27;59.67;;;;;;;-0.64;100.00;98054.25;2073691;28;20216;-74
2022/02/01 00:51:47;;;;;;;140.90;59.10;;;;;;;-0.61;100.00;98051.16;2075258;28;20228;-75
2022/02/01 00:52:54;;;;;;;140.32;59.40;;;;;;;-0.61;100.00;98053.78;2075384;28;20216;-74
2022/02/01 00:53:59;;;;;;;140.40;60.55;;;;;;;-0.59;100.00;98059.56;2075226;28;20248;-74
2022/02/01 00:55:05;;;;;;;149.35;61.13;;;;;;;-0.59;100.00;98051.69;2074685;28;20200;-74
2022/02/01 00:56:09;;;;;;;151.05;59.83;;;;;;;-0.58;100.00;98057.72;2075174;28;20200;-74
2022/02/01 00:57:12;;;;;;;141.57;59.47;;;;;;;-0.61;100.00;98056.41;2074908;28;20678;-74
2022/02/01 00:58:14;;;;;;;141.13;60.92;;;;;;;-0.61;100.00;98059.03;2075570;28;20555;-75
2022/02/01 00:59:18;;;;;;;158.82;59.08;;;;;;;-0.62;100.00;98057.41;2075478;28;20192;-74
2022/02/01 01:00:24;;;;;;;148.43;59.20;;;;;;;-0.61;100.00;98058.22;2074999;28;20295;-74
2022/02/01 01:01:27;;;;;;;138.38;60.50;;;;;;;-0.60;100.00;98059.81;2075083;28;20259;-74
2022/02/01 01:02:32;;;;;;;139.93;61.53;;;;;;;-0.58;100.00;98057.72;2074977;28;20748;-74
2022/02/01 01:03:37;;;;;;;141.20;59.10;;;;;;;-0.60;100.00;98054.56;2074767;28;20196;-74
2022/02/01 01:04:41;;;;;;;140.25;59.42;;;;;;;-0.57;100.00;98054.84;2074760;28;20216;-74
2022/02/01 01:05:46;;;;;;;143.60;59.40;;;;;;;-0.53;100.00;98056.97;2074785;28;20239;-74
2022/02/01 01:06:50;;;;;;;140.77;59.00;;;;;;;-0.54;100.00;98055.41;2075057;28;20674;-74
2022/02/01 01:07:53;;;;;;;138.77;59.38;;;;;;;-0.54;100.00;98065.88;2074568;28;20627;-74
2022/02/01 01:08:57;;;;;;;139.85;58.65;;;;;;;-0.55;100.00;98062.47;2066593;28;20626;-74
2022/02/01 01:09:59;;;;;;;147.00;61.25;;;;;;;-0.53;100.00;98064.84;2074888;28;20192;-74
2022/02/01 01:11:05;;;;;;;140.25;58.70;;;;;;;-0.52;100.00;98053.31;2074651;28;20227;-74
2022/02/01 01:12:07;;;;;;;133.50;59.08;;;;;;;-0.54;100.00;98055.41;2075015;28;20569;-74
2022/02/01 01:13:33;;;;;;;145.10;60.65;;;;;;;-0.52;100.00;98055.94;2066709;28;20725;-74
2022/02/01 01:15:09;;;;;;;131.75;58.33;;;;;;;-0.53;100.00;98054.34;2074920;28;20283;-74
2022/02/01 01:16:38;;;;;;;137.20;58.17;;;;;;;-0.52;100.00;98056.75;2075317;28;20193;-74
2022/02/01 01:43:55;;;;;;;154.52;57.40;;;;;;;-0.47;100.00;98095.28;2061270;28;20197;-74
2022/02/01 01:45:06;;;;;;;136.18;56.58;;;;;;;-0.46;100.00;98099.47;2066391;28;20197;-73
2022/02/01 01:53:12;;;;;;;144.95;56.20;;;;;;;-0.47;100.00;98090.84;2074537;28;20599;-74
2022/02/01 01:54:15;;;;;;;119.50;55.40;;;;;;;-0.47;100.00;98103.16;2074229;28;20232;-73
2022/02/01 01:55:22;;;;;;;138.02;57.28;;;;;;;-0.48;100.00;98099.75;2066849;28;20205;-73
2022/02/01 01:56:30;;;;;;;144.15;58.78;;;;;;;-0.50;100.00;98095.78;2074676;28;20323;-73
2022/02/01 01:57:37;;;;;;;144.73;60.22;;;;;;;-0.52;100.00;98089.97;2074617;28;20228;-73
2022/02/01 01:58:41;;;;;;;138.43;56.95;;;;;;;-0.52;100.00;98093.44;2074401;28;20192;-74
2022/02/01 01:59:43;;;;;;;140.57;60.92;;;;;;;-0.53;100.00;98093.66;2074477;28;20212;-74
2022/02/01 02:01:14;;;;;;;149.52;60.83;;;;;;;-0.51;100.00;98091.59;2074370;28;20189;-74
2022/02/01 02:02:16;;;;;;;123.00;58.00;;;;;;;-0.50;100.00;98095.78;2074058;28;20192;-74
2022/02/01 02:03:22;;;;;;;140.95;58.40;;;;;;;-0.46;100.00;98102.91;2074337;28;20267;-75
2022/02/01 02:04:26;;;;;;;130.65;56.53;;;;;;;-0.45;100.00;98098.44;2074936;28;20216;-74
2022/02/01 02:05:28;;;;;;;136.30;57.00;;;;;;;-0.41;100.00;98110.03;2074862;28;20203;-74
2022/02/01 02:06:31;;;;;;;136.45;57.75;;;;;;;-0.42;100.00;98109.22;2074545;28;20228;-74
2022/02/01 02:07:33;;;;;;;145.15;60.78;;;;;;;-0.41;100.00;98104.78;2074524;28;20208;-74
2022/02/01 02:08:37;;;;;;;153.18;59.83;;;;;;;-0.41;100.00;98112.66;2066322;28;20212;-74
2022/02/01 02:09:41;;;;;;;131.93;58.03;;;;;;;-0.39;100.00;98119.22;2066632;28;20212;-74
2022/02/01 02:10:55;;;;;;;139.13;60.05;;;;;;;-0.40;100.00;98111.59;2074025;28;20200;-74
2022/02/01 02:12:10;;;;;;;137.50;59.83;;;;;;;-0.38;100.00;98117.38;2067719;28;20624;-74
2022/02/01 02:14:43;;;;;;;134.52;57.20;;;;;;;-0.44;100.00;98123.59;2074492;28;20204;-74
2022/02/01 02:15:56;;;;;;;152.48;61.38;;;;;;;-0.45;100.00;98117.56;2074534;28;20169;-74
2022/02/01 02:17:02;;;;;;;139.57;59.60;;;;;;;-0.43;100.00;98127.81;2074556;28;20241;-74
2022/02/01 02:18:05;;;;;;;131.68;59.30;;;;;;;-0.43;100.00;98120.75;2066536;28;20674;-74
2022/02/01 02:19:11;;;;;;;138.95;57.60;;;;;;;-0.45;100.00;98129.88;2066583;28;20203;-75
2022/02/01 02:20:17;;;;;;;136.75;58.85;;;;;;;-0.44;100.00;98115.75;2074241;28;20207;-74
2022/02/01 02:21:21;;;;;;;142.45;60.53;;;;;;;-0.44;100.00;98124.38;2074288;28;20270;-74
2022/02/01 02:22:23;;;;;;;149.55;60.72;;;;;;;-0.38;100.00;98117.38;2074136;28;20283;-74
2022/02/01 02:23:26;;;;;;;131.27;59.70;;;;;;;-0.36;100.00;98120.53;2074204;28;20200;-74
2022/02/01 02:24:32;;;;;;;128.73;59.03;;;;;;;-0.36;100.00;98120.53;2074679;28;20196;-74
2022/02/01 02:25:38;;;;;;;133.65;60.25;;;;;;;-0.35;100.00;98119.50;2074254;28;20215;-74
2022/02/01 02:26:48;;;;;;;146.52;60.42;;;;;;;-0.36;100.00;98120.53;2074380;28;20204;-74
2022/02/01 02:27:53;;;;;;;149.13;62.03;;;;;;;-0.34;100.00;98116.66;2074752;28;20199;-74
2022/02/01 02:28:58;;;;;;;146.75;60.83;;;;;;;-0.34;100.00;98116.66;2073709;28;20337;-74
2022/02/01 02:30:01;;;;;;;145.40;61.45;;;;;;;-0.34;100.00;98108.00;2074317;28;20227;-74
2022/02/01 02:31:05;;;;;;;147.48;59.58;;;;;;;-0.33;100.00;98109.56;2074171;28;20259;-74
2022/02/01 02:32:09;;;;;;;145.68;61.25;;;;;;;-0.33;100.00;98120.06;2074381;28;20208;-74
2022/02/01 02:33:17;;;;;;;154.27;60.92;;;;;;;-0.31;100.00;98121.38;2066890;28;20655;-74
2022/02/01 02:34:20;;;;;;;137.75;60.70;;;;;;;-0.28;100.00;98133.19;2074218;28;20203;-75
2022/02/01 02:35:22;;;;;;;139.35;60.35;;;;;;;-0.28;100.00;98130.56;2074260;28;20259;-74
2022/02/01 02:36:35;;;;;;;158.20;63.90;;;;;;;-0.30;100.00;98130.81;2065563;28;20663;-74
2022/02/01 02:37:42;;;;;;;134.85;57.58;;;;;;;-0.26;100.00;98139.00;2067525;28;20215;-75
2022/02/01 02:38:53;;;;;;;133.32;59.05;;;;;;;-0.24;100.00;98136.91;2066907;28;20205;-74
2022/02/01 02:40:14;;;;;;;138.43;59.35;;;;;;;-0.23;100.00;98142.94;2074110;28;20192;-74
2022/02/01 02:41:35;;;;;;;128.35;60.38;;;;;;;-0.24;100.00;98144.00;2074623;28;20600;-74
2022/02/01 02:45:19;;;;;;;137.43;60.78;;;;;;;-0.27;100.00;98142.63;2074210;28;20568;-74
2022/02/01 02:46:28;;;;;;;141.93;60.92;;;;;;;-0.28;100.00;98143.66;2074516;28;20219;-74
2022/02/01 02:47:36;;;;;;;145.05;60.97;;;;;;;-0.31;100.00;98144.19;2074606;28;20185;-74
2022/02/01 02:48:40;;;;;;;148.63;58.65;;;;;;;-0.31;100.00;98144.19;2074212;28;20275;-74
2022/02/01 02:49:45;;;;;;;129.13;60.63;;;;;;;-0.30;100.00;98146.53;2066835;28;20201;-74
2022/02/01 02:50:49;;;;;;;148.77;60.78;;;;;;;-0.28;100.00;98160.19;2066469;28;20674;-74
2022/02/01 02:52:01;;;;;;;141.40;62.75;;;;;;;-0.28;100.00;98157.56;2073432;28;20271;-74
2022/02/01 02:53:04;;;;;;;144.95;61.17;;;;;;;-0.26;100.00;98167.84;2074450;28;20697;-74
2022/02/01 02:54:13;;;;;;;138.75;58.88;;;;;;;-0.26;100.00;98153.91;2074088;28;20236;-74
2022/02/01 02:55:18;;;;;;;140.80;60.13;;;;;;;-0.24;100.00;98173.59;2074172;28;20180;-74
2022/02/01 02:56:22;;;;;;;138.63;59.20;;;;;;;-0.24;100.00;98181.47;2073784;28;20200;-74
2022/02/01 02:57:31;;;;;;;137.43;59.53;;;;;;;-0.25;100.00;98173.84;2073974;28;20207;-74
2022/02/01 02:58:34;;;;;;;146.40;59.88;;;;;;;-0.24;100.00;98168.38;2074487;28;20287;-74
2022/02/01 02:59:38;;;;;;;151.38;59.78;;;;;;;-0.21;100.00;98173.09;2074542;28;20595;-74
2022/02/01 03:00:43;;;;;;;143.10;57.85;;;;;;;-0.20;100.00;98169.44;2073458;28;20208;-74
2022/02/01 03:01:51;;;;;;;135.70;59.15;;;;;;;-0.20;100.00;98169.44;2066363;28;20287;-74
2022/02/01 03:02:54;;;;;;;136.35;58.67;;;;;;;-0.19;100.00;98173.63;2073928;28;20188;-74
2022/02/01 03:03:56;;;;;;;135.07;57.30;;;;;;;-0.20;100.00;98174.69;2073844;28;20189;-74
2022/02/01 03:05:02;;;;;;;139.38;57.10;;;;;;;-0.17;100.00;98174.19;2074043;28;20199;-74
2022/02/01 03:06:07;;;;;;;142.32;60.78;;;;;;;-0.17;100.00;98171.59;2073114;28;20215;-74
2022/02/01 03:07:18;;;;;;;143.95;59.40;;;;;;;-0.18;100.00;98175.22;2074261;28;20615;-74
2022/02/01 03:08:24;;;;;;;143.65;59.80;;;;;;;-0.17;100.00;98179.44;2066819;28;20209;-74
2022/02/01 03:09:32;;;;;;;146.25;58.47;;;;;;;-0.18;100.00;98180.47;2074208;28;20227;-74
2022/02/01 03:10:35;;;;;;;137.93;60.03;;;;;;;-0.20;100.00;98177.31;2074079;28;20200;-74
2022/02/01 03:11:43;;;;;;;139.93;59.28;;;;;;;-0.21;100.00;98174.94;2073910;28;20199;-74
2022/02/01 03:13:07;;;;;;;146.98;60.20;;;;;;;-0.22;100.00;98179.38;2074438;28;20511;-74
2022/02/01 03:14:23;;;;;;;138.27;57.97;;;;;;;-0.23;100.00;98184.88;2073619;28;20299;-74
2022/02/01 03:15:39;;;;;;;149.10;57.67;;;;;;;-0.24;100.00;98189.34;2073926;28;20203;-74
2022/02/01 03:16:57;;;;;;;144.95;60.58;;;;;;;-0.24;100.00;98199.03;2074412;28;20606;-74
2022/02/01 03:20:47;;;;;;;145.45;58.53;;;;;;;-0.22;100.00;98208.22;2073867;28;20646;-74
2022/02/01 03:21:59;;;;;;;147.00;57.97;;;;;;;-0.22;100.00;98205.59;2073934;28;20693;-74
2022/02/01 03:23:02;;;;;;;134.30;58.20;;;;;;;-0.23;100.00;98217.13;2074518;28;20200;-74
2022/02/01 03:24:05;;;;;;;127.70;59.22;;;;;;;-0.21;100.00;98198.53;2073898;28;20294;-74
2022/02/01 03:25:11;;;;;;;139.32;58.72;;;;;;;-0.19;100.00;98207.72;2073768;28;20203;-75
2022/02/01 03:26:17;;;;;;;151.60;59.20;;;;;;;-0.22;100.00;98210.84;2073958;28;20204;-74
2022/02/01 03:27:24;;;;;;;138.80;59.20;;;;;;;-0.22;100.00;98207.44;2073712;28;20189;-74
2022/02/01 03:28:30;;;;;;;138.77;57.42;;;;;;;-0.25;100.00;98205.31;2074274;28;20199;-74
2022/02/01 03:29:35;;;;;;;141.27;57.15;;;;;;;-0.27;100.00;98197.66;2073560;28;20196;-74
2022/02/01 03:30:36;;;;;;;135.40;58.22;;;;;;;-0.31;100.00;98200.00;2073707;28;20200;-74
2022/02/01 03:31:41;;;;;;;145.05;59.90;;;;;;;-0.30;100.00;98208.66;2074308;28;20188;-74
2022/02/01 03:32:46;;;;;;;130.73;57.83;;;;;;;-0.29;100.00;98218.09;2074311;28;20226;-74
2022/02/01 03:33:52;;;;;;;146.20;58.95;;;;;;;-0.28;100.00;98219.69;2073032;28;20680;-74
2022/02/01 03:35:01;;;;;;;147.40;60.25;;;;;;;-0.27;100.00;98218.63;2073530;28;20211;-74
2022/02/01 03:36:06;;;;;;;152.13;59.63;;;;;;;-0.32;100.00;98218.59;2065878;28;20713;-74
2022/02/01 03:37:08;;;;;;;147.63;58.47;;;;;;;-0.33;100.00;98219.63;2073692;28;20188;-74
2022/02/01 03:38:11;;;;;;;140.75;59.05;;;;;;;-0.34;100.00;98218.06;2074260;28;20203;-74
2022/02/01 03:39:17;;;;;;;141.18;56.38;;;;;;;-0.33;100.00;98217.81;2073596;28;20220;-74
2022/02/01 03:40:22;;;;;;;133.50;58.78;;;;;;;-0.34;100.00;98216.22;2066423;28;20686;-74
2022/02/01 03:41:27;;;;;;;143.65;59.78;;;;;;;-0.29;100.00;98218.09;2073869;28;20196;-74
2022/02/01 03:42:35;;;;;;;148.77;59.92;;;;;;;-0.31;100.00;98220.19;2073867;28;20295;-74
2022/02/01 03:43:39;;;;;;;152.13;59.67;;;;;;;-0.31;100.00;98218.34;2073874;28;20239;-74
2022/02/01 03:44:43;;;;;;;132.35;57.47;;;;;;;-0.33;100.00;98217.03;2073489;28;20564;-74
2022/02/01 03:45:46;;;;;;;149.63;59.70;;;;;;;-0.35;100.00;98216.44;2065748;28;20228;-74
2022/02/01 03:47:01;;;;;;;144.55;60.17;;;;;;;-0.34;100.00;98215.44;2065970;28;20315;-74
2022/02/01 03:48:06;;;;;;;144.75;59.95;;;;;;;-0.35;100.00;98216.44;2073940;28;20183;-74
2022/02/01 03:49:14;;;;;;;149.85;61.50;;;;;;;-0.35;100.00;98216.44;2073716;28;20234;-74
2022/02/01 03:50:17;;;;;;;145.88;59.83;;;;;;;-0.38;100.00;98209.09;2073651;28;20249;-74
2022/02/01 03:51:19;;;;;;;136.23;59.97;;;;;;;-0.38;100.00;98214.34;2073886;28;20235;-74
2022/02/01 03:52:25;;;;;;;148.02;60.42;;;;;;;-0.40;100.00;98213.78;2074053;28;20193;-74
2022/02/01 03:53:33;;;;;;;151.05;60.15;;;;;;;-0.41;100.00;98206.97;2074092;28;20192;-74
2022/02/01 03:54:41;;;;;;;150.60;60.22;;;;;;;-0.41;100.00;98210.38;2073983;28;20215;-74
2022/02/01 03:55:48;;;;;;;137.15;56.90;;;;;;;-0.38;100.00;98214.34;2066391;28;20698;-74
2022/02/01 03:56:59;;;;;;;133.57;59.08;;;;;;;-0.40;100.00;98214.59;2066639;28;20208;-74
2022/02/01 03:58:02;;;;;;;145.45;59.78;;;;;;;-0.42;100.00;98208.00;2073495;28;20263;-74
2022/02/01 03:59:07;;;;;;;143.95;60.42;;;;;;;-0.39;100.00;98210.13;2073517;28;20258;-74
2022/02/01 04:00:17;;;;;;;157.77;60.75;;;;;;;-0.41;100.00;98213.00;2073987;28;20320;-75
2022/02/01 04:01:23;;;;;;;147.05;59.63;;;;;;;-0.40;100.00;98208.56;2073560;28;20196;-74
2022/02/01 04:02:30;;;;;;;150.25;60.47;;;;;;;-0.38;100.00;98216.94;2073956;28;20560;-74
2022/02/01 04:03:37;;;;;;;143.95;58.78;;;;;;;-0.39;100.00;98215.38;2074036;28;20184;-74
2022/02/01 04:04:38;;;;;;;139.35;57.70;;;;;;;-0.35;100.00;98219.06;2073630;28;20208;-74
2022/02/01 04:05:43;;;;;;;151.15;59.67;;;;;;;-0.36;100.00;98212.25;2073490;28;20222;-74
2022/02/01 04:06:48;;;;;;;139.45;59.50;;;;;;;-0.36;100.00;98220.91;2072994;28;20231;-74
2022/02/01 04:07:58;;;;;;;139.63;61.65;;;;;;;-0.39;100.00;98220.63;2073781;28;20222;-74
2022/02/01 04:09:05;;;;;;;145.50;59.42;;;;;;;-0.37;100.00;98226.41;2073819;28;20172;-74
2022/02/01 04:10:12;;;;;;;147.57;60.13;;;;;;;-0.37;100.00;98210.66;2074024;28;20196;-74
2022/02/01 04:11:14;;;;;;;150.75;58.72;;;;;;;-0.44;100.00;98220.53;2073916;28;20724;-74
2022/02/01 04:12:16;;;;;;;130.65;57.67;;;;;;;-0.45;100.00;98211.91;2073362;28;20639;-74
2022/02/01 04:13:18;;;;;;;138.75;60.15;;;;;;;-0.48;100.00;98209.78;2073448;28;20666;-74
2022/02/01 04:14:27;;;;;;;141.25;61.33;;;;;;;-0.47;100.00;98208.72;2073987;28;20192;-74
2022/02/01 04:15:32;;;;;;;136.65;60.55;;;;;;;-0.47;100.00;98208.72;2073308;28;20237;-74
2022/02/01 04:16:41;;;;;;;139.77;60.28;;;;;;;-0.48;100.00;98216.84;2073414;28;20189;-74
2022/02/01 04:17:46;;;;;;;142.13;58.67;;;;;;;-0.47;100.00;98218.41;2072903;28;20204;-74
2022/02/01 04:18:48;;;;;;;138.70;61.28;;;;;;;-0.48;100.00;98220.25;2073339;28;20192;-74
2022/02/01 04:19:56;;;;;;;144.93;59.63;;;;;;;-0.51;100.00;98214.72;2073640;28;20207;-74
2022/02/01 04:21:01;;;;;;;145.25;58.58;;;;;;;-0.52;100.00;98213.13;2072726;28;20188;-74
2022/02/01 04:22:06;;;;;;;137.25;58.50;;;;;;;-0.54;100.00;98215.19;2073941;28;20231;-74
2022/02/01 04:23:12;;;;;;;145.02;59.80;;;;;;;-0.57;100.00;98206.78;2073321;28;20698;-75
2022/02/01 04:24:18;;;;;;;149.55;59.40;;;;;;;-0.54;100.00;98209.94;2073557;28;20180;-74
2022/02/01 04:25:20;;;;;;;132.63;58.28;;;;;;;-0.61;100.00;98205.72;2074135;28;20199;-74
2022/02/01 04:26:21;;;;;;;140.95;60.28;;;;;;;-0.60;100.00;98207.28;2073188;28;20663;-74
2022/02/01 04:27:31;;;;;;;133.60;56.97;;;;;;;-0.63;100.00;98212.22;2073489;28;20559;-74
2022/02/01 04:28:36;;;;;;;142.18;61.70;;;;;;;-0.67;100.00;98206.69;2073196;28;20200;-74
2022/02/01 04:29:45;;;;;;;129.93;59.38;;;;;;;-0.68;100.00;98214.78;2073630;28;20188;-74
2022/02/01 04:30:52;;;;;;;143.52;59.30;;;;;;;-0.71;100.00;98210.81;2073899;28;20226;-74
2022/02/01 04:31:53;;;;;;;145.07;58.38;;;;;;;-0.68;100.00;98218.19;2073899;28;20262;-74
2022/02/01 04:32:57;;;;;;;145.63;60.25;;;;;;;-0.70;100.00;98212.38;2074166;28;20189;-74
2022/02/01 04:33:59;;;;;;;144.05;59.25;;;;;;;-0.66;100.00;98217.94;2073307;28;20227;-74
2022/02/01 04:35:05;;;;;;;147.15;62.15;;;;;;;-0.66;100.00;98216.13;2073552;28;20203;-74
2022/02/01 04:36:16;;;;;;;148.60;60.70;;;;;;;-0.70;100.00;98217.63;2072837;28;20658;-74
2022/02/01 04:37:19;;;;;;;146.40;60.25;;;;;;;-0.68;100.00;98220.03;2073862;28;20211;-74
2022/02/01 04:38:26;;;;;;;146.90;59.90;;;;;;;-0.71;100.00;98220.50;2073981;28;20184;-74
2022/02/01 04:39:28;;;;;;;150.98;60.42;;;;;;;-0.71;100.00;98233.59;2072930;28;20294;-75
2022/02/01 04:40:35;;;;;;;140.25;60.05;;;;;;;-0.76;100.00;98234.34;2073309;28;20212;-74
2022/02/01 04:41:40;;;;;;;150.75;58.92;;;;;;;-0.75;100.00;98242.97;2073526;28;20267;-74
2022/02/01 04:42:49;;;;;;;141.15;61.08;;;;;;;-0.78;100.00;98244.25;2073472;28;20704;-74
2022/02/01 04:43:58;;;;;;;134.50;59.42;;;;;;;-0.79;100.00;98240.03;2073286;28;20224;-74
2022/02/01 04:45:02;;;;;;;134.50;59.13;;;;;;;-0.80;100.00;98245.53;2073569;28;20251;-74
2022/02/01 04:46:09;;;;;;;136.23;58.85;;;;;;;-0.80;100.00;98242.91;2073289;28;20196;-74
2022/02/01 04:47:11;;;;;;;148.77;61.78;;;;;;;-0.78;100.00;98251.28;2073853;28;20661;-74
2022/02/01 04:48:17;;;;;;;143.93;61.65;;;;;;;-0.77;100.00;98243.22;2073854;28;20215;-74
2022/02/01 04:49:22;;;;;;;152.55;63.45;;;;;;;-0.74;100.00;98252.41;2073825;28;20246;-74
2022/02/01 04:50:29;;;;;;;137.30;60.58;;;;;;;-0.75;100.00;98243.78;2073986;28;20176;-74
2022/02/01 04:51:32;;;;;;;139.50;59.33;;;;;;;-0.71;100.00;98247.47;2073399;28;20224;-74
2022/02/01 04:52:35;;;;;;;148.32;59.85;;;;;;;-0.72;100.00;98245.09;2073892;28;20212;-74
2022/02/01 04:53:37;;;;;;;144.32;61.75;;;;;;;-0.75;100.00;98249.00;2072907;28;20304;-74
2022/02/01 04:54:47;;;;;;;154.13;59.95;;;;;;;-0.75;100.00;98250.84;2065668;28;20220;-74
2022/02/01 04:55:59;;;;;;;137.25;58.50;;;;;;;-0.76;100.00;98242.19;2073346;28;20234;-74
2022/02/01 04:57:02;;;;;;;152.98;61.97;;;;;;;-0.75;100.00;98246.38;2074379;28;20702;-74
2022/02/01 04:58:09;;;;;;;141.65;59.35;;;;;;;-0.78;100.00;98251.28;2081023;28;20192;-74
2022/02/01 04:59:11;;;;;;;138.73;59.20;;;;;;;-0.77;100.00;98255.53;2073719;28;20196;-74
2022/02/01 05:00:15;;;;;;;131.03;58.80;;;;;;;-0.81;100.00;98249.97;2073101;28;20205;-74
2022/02/01 05:01:26;;;;;;;138.55;60.03;;;;;;;-0.82;100.00;98247.59;2065399;28;20458;-74
2022/02/01 05:02:33;;;;;;;141.77;58.55;;;;;;;-0.83;100.00;98262.50;2073623;28;20212;-74
2022/02/01 05:03:38;;;;;;;138.63;57.38;;;;;;;-0.84;100.00;98255.69;2073127;28;20618;-74
2022/02/01 05:04:46;;;;;;;133.88;57.90;;;;;;;-0.83;100.00;98257.28;2073268;28;20227;-73
2022/02/01 05:05:55;;;;;;;125.50;55.67;;;;;;;-0.81;100.00;98257.81;2073579;28;20208;-74
2022/02/01 05:06:58;;;;;;;128.77;57.88;;;;;;;-0.82;100.00;98256.25;2065165;28;20595;-74
2022/02/01 05:08:07;;;;;;;130.73;55.95;;;;;;;-0.79;100.00;98258.38;2065645;28;20826;-74
2022/02/01 05:09:17;;;;;;;142.38;56.08;;;;;;;-0.80;100.00;98254.16;2066113;28;20288;-74
2022/02/01 05:10:25;;;;;;;133.93;54.65;;;;;;;-0.76;100.00;98260.53;2073275;28;20197;-74
2022/02/01 05:11:36;;;;;;;130.57;53.70;;;;;;;-0.72;100.00;98260.81;2073433;28;20204;-74
2022/02/01 05:12:41;;;;;;;125.90;54.35;;;;;;;-0.71;100.00;98262.41;2073221;28;20238;-74
2022/02/01 05:14:04;;;;;;;119.35;51.83;;;;;;;-0.74;100.00;98263.69;2073683;28;20203;-74
2022/02/01 05:15:11;;;;;;;126.70;52.10;;;;;;;-0.72;100.00;98266.84;2074050;28;20222;-74
2022/02/01 05:16:21;;;;;;;137.50;54.47;;;;;;;-0.69;100.00;98270.81;2073087;28;20204;-74
2022/02/01 05:17:27;;;;;;;122.57;51.58;;;;;;;-0.75;100.00;98256.88;2073223;28;20603;-74
2022/02/01 05:18:40;;;;;;;115.28;52.10;;;;;;;-0.66;100.00;98265.88;2073649;28;20212;-75
2022/02/01 05:19:55;;;;;;;114.97;52.00;;;;;;;-0.62;100.00;98274.03;2066970;28;20659;-74
2022/02/01 05:21:04;;;;;;;116.88;52.47;;;;;;;-0.61;100.00;98283.47;2072729;28;20192;-74
2022/02/01 05:22:09;;;;;;;114.88;49.67;;;;;;;-0.61;100.00;98283.47;2073917;28;20184;-74
2022/02/01 05:23:17;;;;;;;106.68;49.33;;;;;;;-0.59;100.00;98282.22;2073366;28;20204;-74
2022/02/01 05:24:24;;;;;;;106.53;50.22;;;;;;;-0.58;100.00;98283.81;2073123;28;20705;-74
2022/02/01 05:25:40;;;;;;;95.60;45.60;;;;;;;-0.59;100.00;98287.47;2073640;28;20199;-74
2022/02/01 05:26:46;;;;;;;94.50;41.65;;;;;;;-0.54;100.00;98291.16;2073759;28;20192;-74
2022/02/01 05:27:48;;;;;;;100.55;43.58;;;;;;;-0.52;100.00;98284.66;2072416;28;20296;-74
2022/02/01 05:28:51;;;;;;;80.32;42.58;;;;;;;-0.54;100.00;98278.06;2065012;28;20239;-74
2022/02/01 05:30:00;;;;;;;87.15;40.20;;;;;;;-0.51;100.00;98274.97;2073165;28;20559;-74
2022/02/01 05:31:04;;;;;;;78.00;39.65;;;;;;;-0.40;100.00;98280.09;2073805;28;20177;-74
2022/02/01 05:32:22;;;;;;;75.45;40.75;;;;;;;-0.44;100.00;98268.50;2073616;28;20204;-74
2022/02/01 05:33:26;;;;;;;89.07;39.10;;;;;;;-0.39;100.00;98284.28;2073728;28;20562;-74
2022/02/01 05:34:28;;;;;;;71.55;36.42;;;;;;;-0.45;100.00;98271.38;2073248;28;20201;-74
2022/02/01 05:35:32;;;;;;;77.78;38.97;;;;;;;-0.47;100.00;98265.59;2073122;28;20196;-74
2022/02/01 05:36:38;;;;;;;71.35;36.88;;;;;;;-0.44;100.00;98281.59;2072687;28;20247;-74
2022/02/01 05:37:47;;;;;;;68.63;37.70;;;;;;;-0.46;100.00;98281.06;2074555;28;20189;-74
2022/02/01 05:39:16;;;;;;;75.00;36.33;;;;;;;-0.49;100.00;98286.78;2074436;28;20204;-74
2022/02/01 05:40:23;;;;;;;69.55;35.55;;;;;;;-0.57;100.00;98295.88;2074835;28;20742;-74
2022/02/01 05:41:27;;;;;;;67.03;36.92;;;;;;;-0.60;100.00;98298.97;2074534;28;20196;-74
2022/02/01 05:42:41;;;;;;;73.65;37.10;;;;;;;-0.62;100.00;98297.63;2074734;28;20246;-74
2022/02/01 05:43:46;;;;;;;68.57;35.13;;;;;;;-0.66;100.00;98302.56;2074670;28;20256;-74
2022/02/01 05:44:55;;;;;;;76.78;37.38;;;;;;;-0.70;100.00;98301.44;2075347;28;20179;-74
2022/02/01 05:46:02;;;;;;;65.20;34.92;;;;;;;-0.63;100.00;98307.31;2075083;28;20200;-74
2022/02/01 05:47:07;;;;;;;74.15;33.97;;;;;;;-0.65;100.00;98305.97;2074712;28;20259;-74
2022/02/01 05:48:13;;;;;;;69.22;32.05;;;;;;;-0.67;100.00;98300.19;2073819;28;20220;-74
2022/02/01 05:49:14;;;;;;;60.35;31.42;;;;;;;-0.75;100.00;98301.38;2075162;28;20173;-74
2022/02/01 05:50:24;;;;;;;73.45;33.92;;;;;;;-0.75;100.00;98304.00;2075201;28;20674;-74
2022/02/01 05:51:31;;;;;;;58.15;32.22;;;;;;;-0.74;100.00;98297.72;2074000;28;20219;-74
2022/02/01 05:52:39;;;;;;;67.75;34.22;;;;;;;-0.79;100.00;98297.66;2074371;28;20196;-74
2022/02/01 05:53:46;;;;;;;55.28;30.30;;;;;;;-0.78;100.00;98303.66;2074483;28;20204;-74
2022/02/01 05:54:51;;;;;;;59.53;30.02;;;;;;;-0.79;100.00;98302.88;2074561;28;20291;-74
2022/02/01 05:55:52;;;;;;;53.42;28.48;;;;;;;-0.83;100.00;98293.94;2066714;28;20208;-74